John C. Munro Hamilton International Airport
CYHM : rendu visible

Aérodrome :











RETROUVEZ-NOUS SUR...

 
LOGIN :

S'inscrire | Disclaimer

   EN    FR    IT 

 









Légende :    VFR   VFR Marginal   IFR   IFR Intensif   IFR Très Intensif
Visi : 
Plafond : 
>= 8 km
>= 3000ft
5 à 8 km
1000 à 3000 ft
1500m à 5 km
500 à 1000 ft
800 à 1500m
200 à 500 ft
< 800m
< 200 ft
Symboles :   Orages  Brouillard  Fortes neiges  Fortes précipitations  Vent > 20 kt






- Altitude de l'aérodrome : 780 ft
- Code IATA : YHM


CYHM - John C. Munro Hamilton International

DERNIER METAR :
  • 191521Z 10002KT 10SM SCT009 OVC012 02/01 A2981 RMK SC3SC5 SLP105

METARs EXPIRÉS :
  • 191500Z 08004KT 10SM BKN009 OVC012 02/01 A2981 RMK SC5SC3 SLP104
  • 191400Z 08005KT 8SM OVC009 02/01 A2980 RMK SC8 SLP101
  • 191300Z 05004KT 8SM OVC006 01/01 A2979 RMK SC8 SLP096

TAF AMD TAF CYHM
Valide du 19 à 13h jusqu'au 20 à 12h UTC


191320Z 1913/2012 05005KT P6SM OVC006
TEMPO 1913/1915 2SM BR OVC004
FM191500 05005KT P6SM SCT008 BKN015
TEMPO 1915/1924 OVC008
FM200000 06005KT 6SM BR SCT004 OVC015
PROB30 2000/2003 2SM -DZ BR OVC004
FM200300 VRB03KT 2SM -DZ BR OVC004
PROB30 2003/2012 1/4SM FG VV002 RMK NXT FCST BY 191800Z



MET'MAP, la Météo Aéronautique d'un coup d'oeil ! - Copyright ORBIFLY Décembre 2007 - Disclaimer

ORBIFLY MET'MAP TEAM :

Programmation & Développement : Alexandra Zaïnal
Conception & Développement : Baudouin d'Aumeries
Co-Programmation & Développement : Marc-Olivier Méhu
Soutien technique & logistique : Manuel Goepfert

Contact : metmap@orbifly.com




SOURCES & CREDITS :

   NOAA       Earth
Advisory